sensor_id;sensor_type;location;lat;lon;timestamp;P1;P2;P0
38288;PMS5003;24092;53.370;-6.588;2023-04-24T00:02:09;5;5;
38288;PMS5003;24092;53.370;-6.588;2023-04-24T00:04:37;9;6;
38288;PMS5003;24092;53.370;-6.588;2023-04-24T00:07:04;6;6;
38288;PMS5003;24092;53.370;-6.588;2023-04-24T00:09:31;8;6;
38288;PMS5003;24092;53.370;-6.588;2023-04-24T00:11:58;8;8;
38288;PMS5003;24092;53.370;-6.588;2023-04-24T00:14:25;7;5;
38288;PMS5003;24092;53.370;-6.588;2023-04-24T00:16:52;8;7;
38288;PMS5003;24092;53.370;-6.588;2023-04-24T00:19:18;9;9;
38288;PMS5003;24092;53.370;-6.588;2023-04-24T00:21:45;7;7;
38288;PMS5003;24092;53.370;-6.588;2023-04-24T00:24:12;6;6;
38288;PMS5003;24092;53.370;-6.588;2023-04-24T00:26:39;6;6;
38288;PMS5003;24092;53.370;-6.588;2023-04-24T00:29:06;6;5;
38288;PMS5003;24092;53.370;-6.588;2023-04-24T00:31:33;10;7;
38288;PMS5003;24092;53.370;-6.588;2023-04-24T00:34:00;8;7;
38288;PMS5003;24092;53.370;-6.588;2023-04-24T00:36:28;8;6;
38288;PMS5003;24092;53.370;-6.588;2023-04-24T00:38:55;6;6;
38288;PMS5003;24092;53.370;-6.588;2023-04-24T00:41:22;6;6;
38288;PMS5003;24092;53.370;-6.588;2023-04-24T00:43:51;7;7;
38288;PMS5003;24092;53.370;-6.588;2023-04-24T00:46:18;9;6;
38288;PMS5003;24092;53.370;-6.588;2023-04-24T00:48:46;8;6;
38288;PMS5003;24092;53.370;-6.588;2023-04-24T00:51:13;6;6;
38288;PMS5003;24092;53.370;-6.588;2023-04-24T00:53:40;4;4;
38288;PMS5003;24092;53.370;-6.588;2023-04-24T00:56:07;10;6;
38288;PMS5003;24092;53.370;-6.588;2023-04-24T00:58:35;9;9;
38288;PMS5003;24092;53.370;-6.588;2023-04-24T01:01:02;7;6;
38288;PMS5003;24092;53.370;-6.588;2023-04-24T01:03:30;6;6;
38288;PMS5003;24092;53.370;-6.588;2023-04-24T01:05:57;6;6;
38288;PMS5003;24092;53.370;-6.588;2023-04-24T01:08:24;6;5;
38288;PMS5003;24092;53.370;-6.588;2023-04-24T01:10:54;6;6;
38288;PMS5003;24092;53.370;-6.588;2023-04-24T01:13:23;7;7;
38288;PMS5003;24092;53.370;-6.588;2023-04-24T01:15:51;7;6;
38288;PMS5003;24092;53.370;-6.588;2023-04-24T01:18:17;6;5;
38288;PMS5003;24092;53.370;-6.588;2023-04-24T01:20:45;6;5;
38288;PMS5003;24092;53.370;-6.588;2023-04-24T01:23:12;5;5;
38288;PMS5003;24092;53.370;-6.588;2023-04-24T01:25:39;6;6;
38288;PMS5003;24092;53.370;-6.588;2023-04-24T01:28:07;6;6;
38288;PMS5003;24092;53.370;-6.588;2023-04-24T01:30:34;5;4;
38288;PMS5003;24092;53.370;-6.588;2023-04-24T01:33:01;5;4;
38288;PMS5003;24092;53.370;-6.588;2023-04-24T01:35:28;6;6;
38288;PMS5003;24092;53.370;-6.588;2023-04-24T01:37:56;8;6;
38288;PMS5003;24092;53.370;-6.588;2023-04-24T01:40:23;6;5;
38288;PMS5003;24092;53.370;-6.588;2023-04-24T01:42:50;5;5;
38288;PMS5003;24092;53.370;-6.588;2023-04-24T01:45:17;3;3;
38288;PMS5003;24092;53.370;-6.588;2023-04-24T01:47:45;4;3;
38288;PMS5003;24092;53.370;-6.588;2023-04-24T01:50:12;4;4;
38288;PMS5003;24092;53.370;-6.588;2023-04-24T01:52:40;6;5;
38288;PMS5003;24092;53.370;-6.588;2023-04-24T01:55:07;6;5;
38288;PMS5003;24092;53.370;-6.588;2023-04-24T01:57:34;2;2;
38288;PMS5003;24092;53.370;-6.588;2023-04-24T02:00:03;5;5;
38288;PMS5003;24092;53.370;-6.588;2023-04-24T02:02:31;6;6;
38288;PMS5003;24092;53.370;-6.588;2023-04-24T02:04:58;7;4;
38288;PMS5003;24092;53.370;-6.588;2023-04-24T02:07:25;4;4;
38288;PMS5003;24092;53.370;-6.588;2023-04-24T02:09:52;6;6;
38288;PMS5003;24092;53.370;-6.588;2023-04-24T02:12:19;7;6;
38288;PMS5003;24092;53.370;-6.588;2023-04-24T02:14:46;7;6;
38288;PMS5003;24092;53.370;-6.588;2023-04-24T02:17:13;6;6;
38288;PMS5003;24092;53.370;-6.588;2023-04-24T02:19:40;9;9;
38288;PMS5003;24092;53.370;-6.588;2023-04-24T02:22:07;7;6;
38288;PMS5003;24092;53.370;-6.588;2023-04-24T02:24:34;6;6;
38288;PMS5003;24092;53.370;-6.588;2023-04-24T02:27:02;7;6;
38288;PMS5003;24092;53.370;-6.588;2023-04-24T02:29:29;10;7;
38288;PMS5003;24092;53.370;-6.588;2023-04-24T02:31:56;6;5;
38288;PMS5003;24092;53.370;-6.588;2023-04-24T02:34:23;8;8;
38288;PMS5003;24092;53.370;-6.588;2023-04-24T02:36:50;8;6;
38288;PMS5003;24092;53.370;-6.588;2023-04-24T02:39:17;8;7;
38288;PMS5003;24092;53.370;-6.588;2023-04-24T02:41:45;5;5;
38288;PMS5003;24092;53.370;-6.588;2023-04-24T02:44:12;11;8;
38288;PMS5003;24092;53.370;-6.588;2023-04-24T02:46:39;8;8;
38288;PMS5003;24092;53.370;-6.588;2023-04-24T02:49:06;7;6;
38288;PMS5003;24092;53.370;-6.588;2023-04-24T02:51:33;12;10;
38288;PMS5003;24092;53.370;-6.588;2023-04-24T02:54:00;6;6;
38288;PMS5003;24092;53.370;-6.588;2023-04-24T02:56:27;6;6;
38288;PMS5003;24092;53.370;-6.588;2023-04-24T02:58:54;7;7;
38288;PMS5003;24092;53.370;-6.588;2023-04-24T03:01:21;11;8;
38288;PMS5003;24092;53.370;-6.588;2023-04-24T03:03:48;8;8;
38288;PMS5003;24092;53.370;-6.588;2023-04-24T03:06:15;9;8;
38288;PMS5003;24092;53.370;-6.588;2023-04-24T03:08:42;9;7;
38288;PMS5003;24092;53.370;-6.588;2023-04-24T03:11:09;9;7;
38288;PMS5003;24092;53.370;-6.588;2023-04-24T03:13:36;6;6;
38288;PMS5003;24092;53.370;-6.588;2023-04-24T03:16:03;8;7;
38288;PMS5003;24092;53.370;-6.588;2023-04-24T03:18:31;8;7;
38288;PMS5003;24092;53.370;-6.588;2023-04-24T03:20:58;8;8;
38288;PMS5003;24092;53.370;-6.588;2023-04-24T03:23:25;7;6;
38288;PMS5003;24092;53.370;-6.588;2023-04-24T03:25:52;10;9;
38288;PMS5003;24092;53.370;-6.588;2023-04-24T03:28:19;12;11;
38288;PMS5003;24092;53.370;-6.588;2023-04-24T03:30:46;12;11;
38288;PMS5003;24092;53.370;-6.588;2023-04-24T03:33:13;9;9;
38288;PMS5003;24092;53.370;-6.588;2023-04-24T03:35:40;9;6;
38288;PMS5003;24092;53.370;-6.588;2023-04-24T03:38:07;9;8;
38288;PMS5003;24092;53.370;-6.588;2023-04-24T03:40:34;9;9;
38288;PMS5003;24092;53.370;-6.588;2023-04-24T03:43:01;12;11;
38288;PMS5003;24092;53.370;-6.588;2023-04-24T03:45:28;9;8;
38288;PMS5003;24092;53.370;-6.588;2023-04-24T03:47:55;9;8;
38288;PMS5003;24092;53.370;-6.588;2023-04-24T03:50:22;9;9;
38288;PMS5003;24092;53.370;-6.588;2023-04-24T03:52:50;11;9;
38288;PMS5003;24092;53.370;-6.588;2023-04-24T03:55:17;10;7;
38288;PMS5003;24092;53.370;-6.588;2023-04-24T03:57:45;13;12;
38288;PMS5003;24092;53.370;-6.588;2023-04-24T04:00:12;10;7;
38288;PMS5003;24092;53.370;-6.588;2023-04-24T04:02:39;8;7;
38288;PMS5003;24092;53.370;-6.588;2023-04-24T04:05:07;10;10;
38288;PMS5003;24092;53.370;-6.588;2023-04-24T04:07:34;5;5;
38288;PMS5003;24092;53.370;-6.588;2023-04-24T04:10:00;16;14;
38288;PMS5003;24092;53.370;-6.588;2023-04-24T04:12:27;11;10;
38288;PMS5003;24092;53.370;-6.588;2023-04-24T04:14:54;12;10;
38288;PMS5003;24092;53.370;-6.588;2023-04-24T04:17:21;8;7;
38288;PMS5003;24092;53.370;-6.588;2023-04-24T04:19:48;6;5;
38288;PMS5003;24092;53.370;-6.588;2023-04-24T04:22:15;8;8;
38288;PMS5003;24092;53.370;-6.588;2023-04-24T04:24:43;10;8;
38288;PMS5003;24092;53.370;-6.588;2023-04-24T04:27:10;10;8;
38288;PMS5003;24092;53.370;-6.588;2023-04-24T04:29:37;8;8;
38288;PMS5003;24092;53.370;-6.588;2023-04-24T04:32:04;10;10;
38288;PMS5003;24092;53.370;-6.588;2023-04-24T04:34:31;13;11;
38288;PMS5003;24092;53.370;-6.588;2023-04-24T04:36:58;11;9;
38288;PMS5003;24092;53.370;-6.588;2023-04-24T04:39:25;10;7;
38288;PMS5003;24092;53.370;-6.588;2023-04-24T04:41:52;12;10;
38288;PMS5003;24092;53.370;-6.588;2023-04-24T04:44:19;7;7;
38288;PMS5003;24092;53.370;-6.588;2023-04-24T04:46:46;9;7;
38288;PMS5003;24092;53.370;-6.588;2023-04-24T04:49:13;10;7;
38288;PMS5003;24092;53.370;-6.588;2023-04-24T04:51:40;13;12;
38288;PMS5003;24092;53.370;-6.588;2023-04-24T04:54:08;12;9;
38288;PMS5003;24092;53.370;-6.588;2023-04-24T04:56:35;11;11;
38288;PMS5003;24092;53.370;-6.588;2023-04-24T04:59:02;13;11;
38288;PMS5003;24092;53.370;-6.588;2023-04-24T05:01:29;9;6;
38288;PMS5003;24092;53.370;-6.588;2023-04-24T05:03:56;10;9;
38288;PMS5003;24092;53.370;-6.588;2023-04-24T05:06:23;9;7;
38288;PMS5003;24092;53.370;-6.588;2023-04-24T05:08:50;7;7;
38288;PMS5003;24092;53.370;-6.588;2023-04-24T05:11:17;9;7;
38288;PMS5003;24092;53.370;-6.588;2023-04-24T05:13:44;9;7;
38288;PMS5003;24092;53.370;-6.588;2023-04-24T05:16:11;10;7;
38288;PMS5003;24092;53.370;-6.588;2023-04-24T05:18:38;9;6;
38288;PMS5003;24092;53.370;-6.588;2023-04-24T05:21:05;7;7;
38288;PMS5003;24092;53.370;-6.588;2023-04-24T05:23:32;9;9;
38288;PMS5003;24092;53.370;-6.588;2023-04-24T05:25:59;7;7;
38288;PMS5003;24092;53.370;-6.588;2023-04-24T05:28:26;7;6;
38288;PMS5003;24092;53.370;-6.588;2023-04-24T05:30:53;4;4;
38288;PMS5003;24092;53.370;-6.588;2023-04-24T05:33:20;4;4;
38288;PMS5003;24092;53.370;-6.588;2023-04-24T05:35:47;5;4;
38288;PMS5003;24092;53.370;-6.588;2023-04-24T05:38:14;3;2;
38288;PMS5003;24092;53.370;-6.588;2023-04-24T05:40:42;2;1;
38288;PMS5003;24092;53.370;-6.588;2023-04-24T05:43:09;1;1;
38288;PMS5003;24092;53.370;-6.588;2023-04-24T05:45:36;2;2;
38288;PMS5003;24092;53.370;-6.588;2023-04-24T05:48:03;4;2;
38288;PMS5003;24092;53.370;-6.588;2023-04-24T05:50:31;2;2;
38288;PMS5003;24092;53.370;-6.588;2023-04-24T05:52:58;3;2;
38288;PMS5003;24092;53.370;-6.588;2023-04-24T05:55:25;2;2;
38288;PMS5003;24092;53.370;-6.588;2023-04-24T05:57:52;2;2;
38288;PMS5003;24092;53.370;-6.588;2023-04-24T06:00:20;3;1;
38288;PMS5003;24092;53.370;-6.588;2023-04-24T06:02:46;1;1;
38288;PMS5003;24092;53.370;-6.588;2023-04-24T06:05:14;2;2;
38288;PMS5003;24092;53.370;-6.588;2023-04-24T06:07:41;2;1;
38288;PMS5003;24092;53.370;-6.588;2023-04-24T06:10:08;1;1;
38288;PMS5003;24092;53.370;-6.588;2023-04-24T06:12:36;1;1;
38288;PMS5003;24092;53.370;-6.588;2023-04-24T06:15:03;3;2;
38288;PMS5003;24092;53.370;-6.588;2023-04-24T06:17:31;3;3;
38288;PMS5003;24092;53.370;-6.588;2023-04-24T06:19:58;1;1;
38288;PMS5003;24092;53.370;-6.588;2023-04-24T06:22:25;1;1;
38288;PMS5003;24092;53.370;-6.588;2023-04-24T06:24:52;1;1;
38288;PMS5003;24092;53.370;-6.588;2023-04-24T06:27:19;4;4;
38288;PMS5003;24092;53.370;-6.588;2023-04-24T06:29:46;3;2;
38288;PMS5003;24092;53.370;-6.588;2023-04-24T06:32:13;2;1;
38288;PMS5003;24092;53.370;-6.588;2023-04-24T06:34:41;1;1;
38288;PMS5003;24092;53.370;-6.588;2023-04-24T06:37:08;3;2;
38288;PMS5003;24092;53.370;-6.588;2023-04-24T06:39:35;2;2;
38288;PMS5003;24092;53.370;-6.588;2023-04-24T06:42:02;4;2;
38288;PMS5003;24092;53.370;-6.588;2023-04-24T06:44:29;2;2;
38288;PMS5003;24092;53.370;-6.588;2023-04-24T06:46:56;3;1;
38288;PMS5003;24092;53.370;-6.588;2023-04-24T06:49:23;1;1;
38288;PMS5003;24092;53.370;-6.588;2023-04-24T06:51:51;4;2;
38288;PMS5003;24092;53.370;-6.588;2023-04-24T06:54:18;0;0;
38288;PMS5003;24092;53.370;-6.588;2023-04-24T06:56:45;1;1;
38288;PMS5003;24092;53.370;-6.588;2023-04-24T06:59:12;3;3;
38288;PMS5003;24092;53.370;-6.588;2023-04-24T07:01:39;0;0;
38288;PMS5003;24092;53.370;-6.588;2023-04-24T07:04:06;1;1;
38288;PMS5003;24092;53.370;-6.588;2023-04-24T07:06:33;3;1;
38288;PMS5003;24092;53.370;-6.588;2023-04-24T07:09:01;3;3;
38288;PMS5003;24092;53.370;-6.588;2023-04-24T07:11:28;1;1;
38288;PMS5003;24092;53.370;-6.588;2023-04-24T07:13:55;2;2;
38288;PMS5003;24092;53.370;-6.588;2023-04-24T07:16:22;2;2;
38288;PMS5003;24092;53.370;-6.588;2023-04-24T07:18:49;1;0;
38288;PMS5003;24092;53.370;-6.588;2023-04-24T07:21:16;3;3;
38288;PMS5003;24092;53.370;-6.588;2023-04-24T07:23:43;4;2;
38288;PMS5003;24092;53.370;-6.588;2023-04-24T07:26:10;2;2;
38288;PMS5003;24092;53.370;-6.588;2023-04-24T07:28:38;3;0;
38288;PMS5003;24092;53.370;-6.588;2023-04-24T07:31:05;5;4;
38288;PMS5003;24092;53.370;-6.588;2023-04-24T07:33:32;1;1;
38288;PMS5003;24092;53.370;-6.588;2023-04-24T07:35:59;1;1;
38288;PMS5003;24092;53.370;-6.588;2023-04-24T07:38:26;2;2;
38288;PMS5003;24092;53.370;-6.588;2023-04-24T07:40:55;2;1;
38288;PMS5003;24092;53.370;-6.588;2023-04-24T07:43:22;1;1;
38288;PMS5003;24092;53.370;-6.588;2023-04-24T07:45:49;1;1;
38288;PMS5003;24092;53.370;-6.588;2023-04-24T07:48:16;1;1;
38288;PMS5003;24092;53.370;-6.588;2023-04-24T07:50:44;2;1;
38288;PMS5003;24092;53.370;-6.588;2023-04-24T07:53:11;3;3;
38288;PMS5003;24092;53.370;-6.588;2023-04-24T07:55:38;0;0;
38288;PMS5003;24092;53.370;-6.588;2023-04-24T07:58:05;0;0;
38288;PMS5003;24092;53.370;-6.588;2023-04-24T08:00:32;2;1;
38288;PMS5003;24092;53.370;-6.588;2023-04-24T08:02:59;1;1;
38288;PMS5003;24092;53.370;-6.588;2023-04-24T08:05:26;2;2;
38288;PMS5003;24092;53.370;-6.588;2023-04-24T08:07:53;1;1;
38288;PMS5003;24092;53.370;-6.588;2023-04-24T08:10:21;2;1;
38288;PMS5003;24092;53.370;-6.588;2023-04-24T08:12:49;4;4;
38288;PMS5003;24092;53.370;-6.588;2023-04-24T08:15:16;4;3;
38288;PMS5003;24092;53.370;-6.588;2023-04-24T08:17:44;3;3;
38288;PMS5003;24092;53.370;-6.588;2023-04-24T08:20:11;2;2;
38288;PMS5003;24092;53.370;-6.588;2023-04-24T08:22:39;4;3;
38288;PMS5003;24092;53.370;-6.588;2023-04-24T08:25:06;3;3;
38288;PMS5003;24092;53.370;-6.588;2023-04-24T08:27:34;2;2;
38288;PMS5003;24092;53.370;-6.588;2023-04-24T08:30:01;3;3;
38288;PMS5003;24092;53.370;-6.588;2023-04-24T08:32:28;1;1;
38288;PMS5003;24092;53.370;-6.588;2023-04-24T08:34:55;1;1;
38288;PMS5003;24092;53.370;-6.588;2023-04-24T08:37:23;1;1;
38288;PMS5003;24092;53.370;-6.588;2023-04-24T08:39:51;2;1;
38288;PMS5003;24092;53.370;-6.588;2023-04-24T08:42:19;1;0;
38288;PMS5003;24092;53.370;-6.588;2023-04-24T08:44:48;1;1;
38288;PMS5003;24092;53.370;-6.588;2023-04-24T08:47:16;2;2;
38288;PMS5003;24092;53.370;-6.588;2023-04-24T08:49:44;2;1;
38288;PMS5003;24092;53.370;-6.588;2023-04-24T08:52:14;2;1;
38288;PMS5003;24092;53.370;-6.588;2023-04-24T08:54:42;0;0;
38288;PMS5003;24092;53.370;-6.588;2023-04-24T08:57:10;1;1;
38288;PMS5003;24092;53.370;-6.588;2023-04-24T08:59:41;1;1;
38288;PMS5003;24092;53.370;-6.588;2023-04-24T09:02:10;4;2;
38288;PMS5003;24092;53.370;-6.588;2023-04-24T09:04:37;2;2;
38288;PMS5003;24092;53.370;-6.588;2023-04-24T09:07:05;1;1;
38288;PMS5003;24092;53.370;-6.588;2023-04-24T09:09:34;2;2;
38288;PMS5003;24092;53.370;-6.588;2023-04-24T09:12:02;2;2;
38288;PMS5003;24092;53.370;-6.588;2023-04-24T09:14:30;1;1;
38288;PMS5003;24092;53.370;-6.588;2023-04-24T09:16:59;2;1;
38288;PMS5003;24092;53.370;-6.588;2023-04-24T09:19:26;1;1;
38288;PMS5003;24092;53.370;-6.588;2023-04-24T09:21:53;1;1;
38288;PMS5003;24092;53.370;-6.588;2023-04-24T09:24:21;1;1;
38288;PMS5003;24092;53.370;-6.588;2023-04-24T09:26:48;1;1;
38288;PMS5003;24092;53.370;-6.588;2023-04-24T09:29:22;2;1;
38288;PMS5003;24092;53.370;-6.588;2023-04-24T09:31:49;1;1;
38288;PMS5003;24092;53.370;-6.588;2023-04-24T09:34:19;2;2;
38288;PMS5003;24092;53.370;-6.588;2023-04-24T09:36:47;2;1;
38288;PMS5003;24092;53.370;-6.588;2023-04-24T09:39:15;2;2;
38288;PMS5003;24092;53.370;-6.588;2023-04-24T09:41:44;3;2;
38288;PMS5003;24092;53.370;-6.588;2023-04-24T09:44:12;2;2;
38288;PMS5003;24092;53.370;-6.588;2023-04-24T09:46:40;1;1;
38288;PMS5003;24092;53.370;-6.588;2023-04-24T09:49:08;2;1;
38288;PMS5003;24092;53.370;-6.588;2023-04-24T09:51:39;2;1;
38288;PMS5003;24092;53.370;-6.588;2023-04-24T09:54:13;1;1;
38288;PMS5003;24092;53.370;-6.588;2023-04-24T09:56:41;1;1;
38288;PMS5003;24092;53.370;-6.588;2023-04-24T09:59:09;1;1;
38288;PMS5003;24092;53.370;-6.588;2023-04-24T10:01:37;2;2;
38288;PMS5003;24092;53.370;-6.588;2023-04-24T10:04:04;6;3;
38288;PMS5003;24092;53.370;-6.588;2023-04-24T10:06:33;2;2;
38288;PMS5003;24092;53.370;-6.588;2023-04-24T10:09:01;3;2;
38288;PMS5003;24092;53.370;-6.588;2023-04-24T10:11:29;2;2;
38288;PMS5003;24092;53.370;-6.588;2023-04-24T10:13:57;2;2;
38288;PMS5003;24092;53.370;-6.588;2023-04-24T10:16:24;2;2;
38288;PMS5003;24092;53.370;-6.588;2023-04-24T10:18:52;4;3;
38288;PMS5003;24092;53.370;-6.588;2023-04-24T10:21:20;3;3;
38288;PMS5003;24092;53.370;-6.588;2023-04-24T10:23:48;5;4;
38288;PMS5003;24092;53.370;-6.588;2023-04-24T10:26:17;3;2;
38288;PMS5003;24092;53.370;-6.588;2023-04-24T10:28:46;3;3;
38288;PMS5003;24092;53.370;-6.588;2023-04-24T10:31:14;2;1;
38288;PMS5003;24092;53.370;-6.588;2023-04-24T10:33:41;3;2;
38288;PMS5003;24092;53.370;-6.588;2023-04-24T10:36:10;2;2;
38288;PMS5003;24092;53.370;-6.588;2023-04-24T10:38:39;2;2;
38288;PMS5003;24092;53.370;-6.588;2023-04-24T10:41:10;0;0;
38288;PMS5003;24092;53.370;-6.588;2023-04-24T10:43:39;2;2;
38288;PMS5003;24092;53.370;-6.588;2023-04-24T10:46:06;2;1;
38288;PMS5003;24092;53.370;-6.588;2023-04-24T10:48:34;2;1;
38288;PMS5003;24092;53.370;-6.588;2023-04-24T10:51:01;3;3;
38288;PMS5003;24092;53.370;-6.588;2023-04-24T10:53:29;2;1;
38288;PMS5003;24092;53.370;-6.588;2023-04-24T10:55:58;2;2;
38288;PMS5003;24092;53.370;-6.588;2023-04-24T10:58:38;3;1;
38288;PMS5003;24092;53.370;-6.588;2023-04-24T11:01:07;1;1;
38288;PMS5003;24092;53.370;-6.588;2023-04-24T11:03:35;3;2;
38288;PMS5003;24092;53.370;-6.588;2023-04-24T11:06:02;1;1;
38288;PMS5003;24092;53.370;-6.588;2023-04-24T11:08:33;3;3;
38288;PMS5003;24092;53.370;-6.588;2023-04-24T11:11:08;1;1;
38288;PMS5003;24092;53.370;-6.588;2023-04-24T11:14:09;2;2;
38288;PMS5003;24092;53.370;-6.588;2023-04-24T11:16:42;2;2;
38288;PMS5003;24092;53.370;-6.588;2023-04-24T11:19:18;4;2;
38288;PMS5003;24092;53.370;-6.588;2023-04-24T11:21:50;1;1;
38288;PMS5003;24092;53.370;-6.588;2023-04-24T11:24:26;2;1;
38288;PMS5003;24092;53.370;-6.588;2023-04-24T11:26:56;1;1;
38288;PMS5003;24092;53.370;-6.588;2023-04-24T11:30:30;2;2;
38288;PMS5003;24092;53.370;-6.588;2023-04-24T11:33:01;2;2;
38288;PMS5003;24092;53.370;-6.588;2023-04-24T11:35:35;2;1;
38288;PMS5003;24092;53.370;-6.588;2023-04-24T11:38:05;1;1;
38288;PMS5003;24092;53.370;-6.588;2023-04-24T11:40:33;4;3;
38288;PMS5003;24092;53.370;-6.588;2023-04-24T11:43:00;3;2;
38288;PMS5003;24092;53.370;-6.588;2023-04-24T11:45:27;3;2;
38288;PMS5003;24092;53.370;-6.588;2023-04-24T11:47:56;1;1;
38288;PMS5003;24092;53.370;-6.588;2023-04-24T11:50:24;3;3;
38288;PMS5003;24092;53.370;-6.588;2023-04-24T11:52:53;3;2;
38288;PMS5003;24092;53.370;-6.588;2023-04-24T11:55:25;3;2;
38288;PMS5003;24092;53.370;-6.588;2023-04-24T11:57:55;2;1;
38288;PMS5003;24092;53.370;-6.588;2023-04-24T12:00:23;4;3;
38288;PMS5003;24092;53.370;-6.588;2023-04-24T12:03:02;3;1;
38288;PMS5003;24092;53.370;-6.588;2023-04-24T12:05:31;2;2;
38288;PMS5003;24092;53.370;-6.588;2023-04-24T12:07:59;3;3;
38288;PMS5003;24092;53.370;-6.588;2023-04-24T12:10:26;4;3;
38288;PMS5003;24092;53.370;-6.588;2023-04-24T12:12:56;5;2;
38288;PMS5003;24092;53.370;-6.588;2023-04-24T12:15:25;2;2;
38288;PMS5003;24092;53.370;-6.588;2023-04-24T12:17:53;1;1;
38288;PMS5003;24092;53.370;-6.588;2023-04-24T12:20:24;3;2;
38288;PMS5003;24092;53.370;-6.588;2023-04-24T12:22:52;1;1;
38288;PMS5003;24092;53.370;-6.588;2023-04-24T12:25:21;2;1;
38288;PMS5003;24092;53.370;-6.588;2023-04-24T12:27:52;3;3;
38288;PMS5003;24092;53.370;-6.588;2023-04-24T12:30:21;4;3;
38288;PMS5003;24092;53.370;-6.588;2023-04-24T12:32:53;1;1;
38288;PMS5003;24092;53.370;-6.588;2023-04-24T12:35:20;2;1;
38288;PMS5003;24092;53.370;-6.588;2023-04-24T12:37:49;2;2;
38288;PMS5003;24092;53.370;-6.588;2023-04-24T12:40:16;1;1;
38288;PMS5003;24092;53.370;-6.588;2023-04-24T12:42:45;2;1;
38288;PMS5003;24092;53.370;-6.588;2023-04-24T12:45:14;2;1;
38288;PMS5003;24092;53.370;-6.588;2023-04-24T12:47:42;2;2;
38288;PMS5003;24092;53.370;-6.588;2023-04-24T12:50:11;2;1;
38288;PMS5003;24092;53.370;-6.588;2023-04-24T12:52:40;4;3;
38288;PMS5003;24092;53.370;-6.588;2023-04-24T12:55:09;1;1;
38288;PMS5003;24092;53.370;-6.588;2023-04-24T12:57:38;3;3;
38288;PMS5003;24092;53.370;-6.588;2023-04-24T13:00:06;2;2;
38288;PMS5003;24092;53.370;-6.588;2023-04-24T13:02:35;3;3;
38288;PMS5003;24092;53.370;-6.588;2023-04-24T13:05:02;3;3;
38288;PMS5003;24092;53.370;-6.588;2023-04-24T13:07:30;2;2;
38288;PMS5003;24092;53.370;-6.588;2023-04-24T13:09:57;2;2;
38288;PMS5003;24092;53.370;-6.588;2023-04-24T13:12:24;2;1;
38288;PMS5003;24092;53.370;-6.588;2023-04-24T13:14:51;2;2;
38288;PMS5003;24092;53.370;-6.588;2023-04-24T13:17:18;2;1;
38288;PMS5003;24092;53.370;-6.588;2023-04-24T13:19:45;2;2;
38288;PMS5003;24092;53.370;-6.588;2023-04-24T13:22:12;3;2;
38288;PMS5003;24092;53.370;-6.588;2023-04-24T13:24:40;2;2;
38288;PMS5003;24092;53.370;-6.588;2023-04-24T13:27:07;3;3;
38288;PMS5003;24092;53.370;-6.588;2023-04-24T13:29:40;2;1;
38288;PMS5003;24092;53.370;-6.588;2023-04-24T13:32:08;1;1;
38288;PMS5003;24092;53.370;-6.588;2023-04-24T13:34:36;5;4;
38288;PMS5003;24092;53.370;-6.588;2023-04-24T13:37:03;2;2;
38288;PMS5003;24092;53.370;-6.588;2023-04-24T13:39:31;2;2;
38288;PMS5003;24092;53.370;-6.588;2023-04-24T13:41:59;2;2;
38288;PMS5003;24092;53.370;-6.588;2023-04-24T13:44:26;3;2;
38288;PMS5003;24092;53.370;-6.588;2023-04-24T13:46:53;1;1;
38288;PMS5003;24092;53.370;-6.588;2023-04-24T13:49:22;1;1;
38288;PMS5003;24092;53.370;-6.588;2023-04-24T13:51:49;3;3;
38288;PMS5003;24092;53.370;-6.588;2023-04-24T13:54:17;2;1;
38288;PMS5003;24092;53.370;-6.588;2023-04-24T13:56:44;7;6;
38288;PMS5003;24092;53.370;-6.588;2023-04-24T13:59:12;4;4;
38288;PMS5003;24092;53.370;-6.588;2023-04-24T14:01:39;2;2;
38288;PMS5003;24092;53.370;-6.588;2023-04-24T14:04:07;4;4;
38288;PMS5003;24092;53.370;-6.588;2023-04-24T14:06:34;3;2;
38288;PMS5003;24092;53.370;-6.588;2023-04-24T14:09:01;1;1;
38288;PMS5003;24092;53.370;-6.588;2023-04-24T14:11:28;4;3;
38288;PMS5003;24092;53.370;-6.588;2023-04-24T14:13:57;2;2;
38288;PMS5003;24092;53.370;-6.588;2023-04-24T14:16:24;2;2;
38288;PMS5003;24092;53.370;-6.588;2023-04-24T14:18:51;3;1;
38288;PMS5003;24092;53.370;-6.588;2023-04-24T14:21:19;3;3;
38288;PMS5003;24092;53.370;-6.588;2023-04-24T14:23:46;4;3;
38288;PMS5003;24092;53.370;-6.588;2023-04-24T14:26:13;4;3;
38288;PMS5003;24092;53.370;-6.588;2023-04-24T14:28:40;5;4;
38288;PMS5003;24092;53.370;-6.588;2023-04-24T14:31:07;2;2;
38288;PMS5003;24092;53.370;-6.588;2023-04-24T14:33:34;4;2;
38288;PMS5003;24092;53.370;-6.588;2023-04-24T14:36:01;3;3;
38288;PMS5003;24092;53.370;-6.588;2023-04-24T14:38:29;2;2;
38288;PMS5003;24092;53.370;-6.588;2023-04-24T14:40:56;3;3;
38288;PMS5003;24092;53.370;-6.588;2023-04-24T14:43:23;2;2;
38288;PMS5003;24092;53.370;-6.588;2023-04-24T14:45:50;2;1;
38288;PMS5003;24092;53.370;-6.588;2023-04-24T14:48:17;3;2;
38288;PMS5003;24092;53.370;-6.588;2023-04-24T14:50:44;4;2;
38288;PMS5003;24092;53.370;-6.588;2023-04-24T14:53:12;2;2;
38288;PMS5003;24092;53.370;-6.588;2023-04-24T14:55:39;3;2;
38288;PMS5003;24092;53.370;-6.588;2023-04-24T14:58:06;3;3;
38288;PMS5003;24092;53.370;-6.588;2023-04-24T15:00:33;4;4;
38288;PMS5003;24092;53.370;-6.588;2023-04-24T15:03:00;1;1;
38288;PMS5003;24092;53.370;-6.588;2023-04-24T15:05:28;4;4;
38288;PMS5003;24092;53.370;-6.588;2023-04-24T15:07:55;4;3;
38288;PMS5003;24092;53.370;-6.588;2023-04-24T15:10:22;5;4;
38288;PMS5003;24092;53.370;-6.588;2023-04-24T15:12:49;6;5;
38288;PMS5003;24092;53.370;-6.588;2023-04-24T15:15:16;18;15;
38288;PMS5003;24092;53.370;-6.588;2023-04-24T15:17:43;14;11;
38288;PMS5003;24092;53.370;-6.588;2023-04-24T15:20:11;2;2;
38288;PMS5003;24092;53.370;-6.588;2023-04-24T15:22:38;4;2;
38288;PMS5003;24092;53.370;-6.588;2023-04-24T15:25:05;4;3;
38288;PMS5003;24092;53.370;-6.588;2023-04-24T15:27:41;4;3;
38288;PMS5003;24092;53.370;-6.588;2023-04-24T15:30:09;5;3;
38288;PMS5003;24092;53.370;-6.588;2023-04-24T15:32:37;3;3;
38288;PMS5003;24092;53.370;-6.588;2023-04-24T15:35:05;2;1;
38288;PMS5003;24092;53.370;-6.588;2023-04-24T15:37:33;5;5;
38288;PMS5003;24092;53.370;-6.588;2023-04-24T15:40:00;5;5;
38288;PMS5003;24092;53.370;-6.588;2023-04-24T15:42:27;7;5;
38288;PMS5003;24092;53.370;-6.588;2023-04-24T15:44:54;12;8;
38288;PMS5003;24092;53.370;-6.588;2023-04-24T15:47:21;3;3;
38288;PMS5003;24092;53.370;-6.588;2023-04-24T15:49:48;2;1;
38288;PMS5003;24092;53.370;-6.588;2023-04-24T15:52:15;5;4;
38288;PMS5003;24092;53.370;-6.588;2023-04-24T15:54:42;3;3;
38288;PMS5003;24092;53.370;-6.588;2023-04-24T15:57:09;5;4;
38288;PMS5003;24092;53.370;-6.588;2023-04-24T15:59:36;2;2;
38288;PMS5003;24092;53.370;-6.588;2023-04-24T16:02:03;1;1;
38288;PMS5003;24092;53.370;-6.588;2023-04-24T16:04:30;3;3;
38288;PMS5003;24092;53.370;-6.588;2023-04-24T16:06:57;7;6;
38288;PMS5003;24092;53.370;-6.588;2023-04-24T16:09:24;9;6;
38288;PMS5003;24092;53.370;-6.588;2023-04-24T16:11:51;17;16;
38288;PMS5003;24092;53.370;-6.588;2023-04-24T16:14:18;3;3;
38288;PMS5003;24092;53.370;-6.588;2023-04-24T16:16:45;6;3;
38288;PMS5003;24092;53.370;-6.588;2023-04-24T16:19:12;5;5;
38288;PMS5003;24092;53.370;-6.588;2023-04-24T16:21:39;8;7;
38288;PMS5003;24092;53.370;-6.588;2023-04-24T16:24:07;7;6;
38288;PMS5003;24092;53.370;-6.588;2023-04-24T16:26:33;6;6;
38288;PMS5003;24092;53.370;-6.588;2023-04-24T16:29:00;6;4;
38288;PMS5003;24092;53.370;-6.588;2023-04-24T16:31:28;3;3;
38288;PMS5003;24092;53.370;-6.588;2023-04-24T16:33:55;7;6;
38288;PMS5003;24092;53.370;-6.588;2023-04-24T16:36:22;5;5;